createdAt,value
2018-04-29T00:00:00.757Z,3.50
2018-04-29T00:02:33.263Z,3.53
2018-04-29T00:05:05.841Z,3.70
2018-04-29T00:07:38.497Z,2.77
2018-04-29T00:10:11.825Z,3.27
2018-04-29T00:12:44.227Z,2.93
2018-04-29T00:15:16.778Z,3.20
2018-04-29T00:17:49.453Z,3.13
2018-04-29T00:20:22.017Z,3.37
2018-04-29T00:22:54.445Z,3.33
2018-04-29T00:25:27.822Z,3.27
2018-04-29T00:28:01.207Z,2.50
2018-04-29T00:30:33.713Z,3.00
2018-04-29T00:33:06.353Z,2.83
2018-04-29T00:35:39.030Z,3.13
2018-04-29T00:40:50.930Z,2.63
2018-04-29T00:43:23.355Z,2.90
2018-04-29T00:45:56.050Z,3.33
2018-04-29T00:48:28.642Z,2.87
2018-04-29T00:51:01.072Z,3.00
2018-04-29T00:53:33.622Z,3.17
2018-04-29T00:56:07.003Z,2.70
2018-04-29T00:58:40.139Z,2.60
2018-04-29T01:01:12.724Z,2.70
2018-04-29T01:03:45.348Z,2.70
2018-04-29T01:06:18.030Z,2.70
2018-04-29T01:08:50.782Z,3.00
2018-04-29T01:11:24.037Z,2.70
2018-04-29T01:13:56.534Z,2.60
2018-04-29T01:16:29.842Z,2.67
2018-04-29T01:19:02.217Z,2.53
2018-04-29T01:21:35.539Z,2.70
2018-04-29T01:24:08.868Z,2.73
2018-04-29T01:26:42.034Z,2.60
2018-04-29T01:29:15.222Z,2.40
2018-04-29T01:31:47.596Z,2.90
2018-04-29T01:34:19.909Z,2.40
2018-04-29T01:36:52.420Z,2.57
2018-04-29T01:39:25.038Z,2.43
2018-04-29T01:41:57.647Z,2.63
2018-04-29T01:44:30.069Z,2.50
2018-04-29T01:47:02.487Z,2.67
2018-04-29T01:49:35.118Z,2.67
2018-04-29T01:52:07.932Z,2.60
2018-04-29T01:54:40.652Z,2.77
2018-04-29T01:57:13.429Z,2.70
2018-04-29T01:59:46.855Z,2.50
2018-04-29T02:02:19.409Z,2.73
2018-04-29T02:04:51.890Z,2.80
2018-04-29T02:07:24.441Z,2.70
2018-04-29T02:09:56.844Z,2.80
2018-04-29T02:12:29.242Z,2.53
2018-04-29T02:15:01.839Z,2.80
2018-04-29T02:17:34.322Z,2.70
2018-04-29T02:20:06.803Z,2.97
2018-04-29T02:22:39.300Z,3.73
2018-04-29T02:25:11.800Z,3.40
2018-04-29T02:27:44.233Z,3.13
2018-04-29T02:30:16.790Z,3.30
2018-04-29T02:32:50.024Z,3.20
2018-04-29T02:35:22.595Z,3.40
2018-04-29T02:37:55.119Z,3.43
2018-04-29T02:40:27.813Z,3.37
2018-04-29T02:43:00.305Z,3.30
2018-04-29T02:45:33.006Z,3.73
2018-04-29T02:48:05.516Z,3.50
2018-04-29T02:50:38.736Z,3.80
2018-04-29T02:53:11.124Z,3.30
2018-04-29T02:55:43.752Z,3.10
2018-04-29T02:58:17.093Z,3.70
2018-04-29T03:00:49.711Z,3.40
2018-04-29T03:03:22.189Z,3.63
2018-04-29T03:05:55.111Z,3.37
2018-04-29T03:08:27.756Z,3.10
2018-04-29T03:11:00.369Z,3.30
2018-04-29T03:13:33.649Z,3.30
2018-04-29T03:16:06.304Z,3.13
2018-04-29T03:18:38.878Z,3.70
2018-04-29T03:21:11.377Z,3.43
2018-04-29T03:23:43.736Z,3.20
2018-04-29T03:26:16.115Z,3.43
2018-04-29T03:28:48.553Z,3.97
2018-04-29T03:31:21.858Z,3.40
2018-04-29T03:33:55.035Z,3.20
2018-04-29T03:36:27.737Z,3.33
2018-04-29T03:39:00.274Z,3.43
2018-04-29T03:41:33.198Z,3.03
2018-04-29T03:44:06.600Z,3.70
2018-04-29T03:46:39.015Z,3.83
2018-04-29T03:49:11.627Z,3.63
2018-04-29T03:51:44.265Z,3.83
2018-04-29T03:54:17.556Z,4.00
2018-04-29T03:56:50.219Z,3.70
2018-04-29T03:59:35.153Z,4.27
2018-04-29T04:02:19.980Z,4.07
2018-04-29T04:04:52.499Z,3.70
2018-04-29T04:07:24.930Z,3.47
2018-04-29T04:09:57.274Z,3.53
2018-04-29T04:12:29.952Z,3.90
2018-04-29T04:15:03.271Z,3.90
2018-04-29T04:17:36.510Z,4.07
2018-04-29T04:20:09.013Z,3.80
2018-04-29T04:22:41.704Z,4.10
2018-04-29T04:25:14.203Z,3.80
2018-04-29T04:27:46.640Z,3.70
2018-04-29T04:30:19.828Z,3.70
2018-04-29T04:32:52.445Z,3.83
2018-04-29T04:35:25.785Z,3.80
2018-04-29T04:37:58.487Z,3.60
2018-04-29T04:40:31.143Z,4.10
2018-04-29T04:43:03.713Z,3.80
2018-04-29T04:45:36.467Z,3.20
2018-04-29T04:48:09.058Z,3.70
2018-04-29T04:50:42.211Z,3.40
2018-04-29T04:53:15.395Z,3.20
2018-04-29T04:55:49.144Z,3.40
2018-04-29T04:58:21.644Z,3.30
2018-04-29T05:00:55.373Z,2.80
2018-04-29T05:03:27.885Z,3.00
2018-04-29T05:06:00.701Z,2.73
2018-04-29T05:08:34.752Z,3.20
2018-04-29T05:11:12.535Z,3.00
2018-04-29T05:13:45.125Z,2.90
2018-04-29T05:16:17.728Z,3.03
2018-04-29T05:18:50.206Z,2.90
2018-04-29T05:21:23.433Z,2.77
2018-04-29T05:23:56.739Z,2.83
2018-04-29T05:26:29.245Z,2.60
2018-04-29T05:29:01.681Z,2.57
2018-04-29T05:31:34.315Z,3.07
2018-04-29T05:34:06.983Z,2.83
2018-04-29T05:36:40.185Z,2.97
2018-04-29T05:39:13.495Z,2.80
2018-04-29T05:41:47.048Z,2.67
2018-04-29T05:44:20.548Z,2.50
2018-04-29T05:46:53.044Z,2.83
2018-04-29T05:49:25.727Z,2.23
2018-04-29T05:51:59.085Z,3.03
2018-04-29T05:54:31.577Z,2.73
2018-04-29T05:57:04.465Z,3.17
2018-04-29T05:59:37.361Z,2.60
2018-04-29T06:02:10.535Z,2.83
2018-04-29T06:04:42.991Z,2.93
2018-04-29T06:07:15.490Z,2.90
2018-04-29T06:09:49.395Z,2.57
2018-04-29T06:12:22.593Z,3.30
2018-04-29T06:14:55.285Z,2.80
2018-04-29T06:17:27.857Z,3.03
2018-04-29T06:20:00.347Z,3.40
2018-04-29T06:22:32.981Z,3.13
2018-04-29T06:25:06.986Z,3.10
2018-04-29T06:27:39.636Z,3.17
2018-04-29T06:30:12.316Z,3.77
2018-04-29T06:32:44.949Z,4.67
2018-04-29T06:35:17.673Z,4.30
2018-04-29T06:37:50.269Z,4.53
2018-04-29T06:40:23.481Z,4.37
2018-04-29T06:42:56.660Z,4.50
2018-04-29T06:45:29.061Z,4.43
2018-04-29T06:48:01.548Z,4.33
2018-04-29T06:50:34.120Z,4.40
2018-04-29T06:53:06.792Z,4.27
2018-04-29T06:55:40.179Z,4.40
2018-04-29T06:58:13.350Z,4.90
2018-04-29T07:00:45.893Z,4.30
2018-04-29T07:03:18.416Z,4.17
2018-04-29T07:05:51.096Z,4.30
2018-04-29T07:08:24.795Z,4.50
2018-04-29T07:10:58.315Z,6.23
2018-04-29T07:13:31.612Z,4.10
2018-04-29T07:16:04.236Z,4.17
2018-04-29T07:18:36.672Z,4.03
2018-04-29T07:21:09.381Z,4.20
2018-04-29T07:23:44.750Z,3.97
2018-04-29T07:26:17.465Z,4.20
2018-04-29T07:28:51.389Z,4.00
2018-04-29T07:31:24.031Z,5.20
2018-04-29T07:33:56.712Z,3.37
2018-04-29T07:36:29.307Z,3.07
2018-04-29T07:39:02.084Z,3.13
2018-04-29T07:41:34.676Z,4.30
2018-04-29T07:44:07.484Z,3.27
2018-04-29T07:46:39.917Z,3.60
2018-04-29T07:49:12.836Z,2.80
2018-04-29T07:51:45.467Z,2.83
2018-04-29T07:54:18.242Z,2.53
2018-04-29T07:56:50.840Z,2.70
2018-04-29T07:59:23.667Z,2.50
2018-04-29T08:01:56.233Z,2.37
2018-04-29T08:04:28.979Z,2.80
2018-04-29T08:07:02.312Z,2.57
2018-04-29T08:09:34.964Z,2.50
2018-04-29T08:12:07.600Z,2.43
2018-04-29T08:14:40.208Z,2.57
2018-04-29T08:17:12.613Z,2.90
2018-04-29T08:19:45.273Z,2.67
2018-04-29T08:22:17.882Z,3.70
2018-04-29T08:24:50.672Z,2.40
2018-04-29T08:27:23.214Z,2.53
2018-04-29T08:29:56.108Z,2.43
2018-04-29T08:32:29.412Z,2.73
2018-04-29T08:35:02.892Z,2.30
2018-04-29T08:37:35.532Z,2.87
2018-04-29T08:40:08.117Z,2.57
2018-04-29T08:42:40.842Z,2.83
2018-04-29T08:45:13.319Z,2.50
2018-04-29T08:47:46.018Z,2.60
2018-04-29T08:50:18.707Z,2.97
2018-04-29T08:52:51.205Z,2.80
2018-04-29T08:55:24.678Z,3.07
2018-04-29T08:57:57.279Z,2.40
2018-04-29T09:00:30.069Z,2.63
2018-04-29T09:03:02.794Z,2.57
2018-04-29T09:05:35.464Z,2.37
2018-04-29T09:08:07.967Z,2.73
2018-04-29T09:10:40.647Z,2.70
2018-04-29T09:13:13.284Z,2.60
2018-04-29T09:15:46.037Z,2.63
2018-04-29T09:18:18.633Z,2.80
2018-04-29T09:20:51.067Z,2.43
2018-04-29T09:23:23.831Z,2.37
2018-04-29T09:25:56.522Z,3.13
2018-04-29T09:28:29.247Z,2.53
2018-04-29T09:31:02.738Z,2.50
2018-04-29T09:33:35.408Z,2.73
2018-04-29T09:36:08.028Z,2.73
2018-04-29T09:38:40.645Z,3.40
2018-04-29T09:41:13.309Z,3.07
2018-04-29T09:43:46.027Z,2.60
2018-04-29T09:46:18.918Z,2.97
2018-04-29T09:48:51.523Z,2.83
2018-04-29T09:51:24.084Z,2.60
2018-04-29T09:53:56.668Z,2.63
2018-04-29T09:56:29.269Z,2.83
2018-04-29T09:59:02.621Z,3.13
2018-04-29T10:01:35.481Z,2.80
2018-04-29T10:04:08.062Z,2.73
2018-04-29T10:06:40.665Z,9.57
2018-04-29T10:09:13.860Z,4.30
2018-04-29T10:11:46.465Z,2.67
2018-04-29T10:14:19.169Z,2.57
2018-04-29T10:16:51.732Z,2.30
2018-04-29T10:19:31.246Z,2.50
2018-04-29T10:22:03.910Z,2.40
2018-04-29T10:24:37.268Z,2.23
2018-04-29T10:27:10.087Z,2.40
2018-04-29T10:29:42.625Z,2.70
2018-04-29T10:32:15.260Z,2.67
2018-04-29T10:34:47.963Z,3.00
2018-04-29T10:37:20.618Z,2.60
2018-04-29T10:39:53.101Z,2.33
2018-04-29T10:42:26.560Z,2.60
2018-04-29T10:44:59.165Z,2.57
2018-04-29T10:47:32.440Z,3.17
2018-04-29T10:50:05.873Z,2.87
2018-04-29T10:52:39.291Z,2.50
2018-04-29T10:55:12.027Z,2.45
2018-04-29T10:57:44.581Z,2.70
2018-04-29T11:00:17.890Z,2.60
2018-04-29T11:02:50.429Z,2.70
2018-04-29T11:05:23.043Z,2.47
2018-04-29T11:07:55.669Z,2.92
2018-04-29T11:10:28.246Z,2.55
2018-04-29T11:13:00.883Z,2.83
2018-04-29T11:15:33.486Z,2.85
2018-04-29T11:18:06.940Z,2.83
2018-04-29T11:20:39.416Z,2.50
2018-04-29T11:23:12.470Z,2.50
2018-04-29T11:25:45.178Z,2.55
2018-04-29T11:28:17.719Z,2.47
2018-04-29T11:30:50.254Z,2.65
2018-04-29T11:33:29.834Z,3.12
2018-04-29T11:36:02.873Z,2.50
2018-04-29T11:38:35.403Z,2.50
2018-04-29T11:41:08.652Z,2.50
2018-04-29T11:43:41.405Z,2.90
2018-04-29T11:46:14.156Z,2.65
2018-04-29T11:48:46.961Z,2.70
2018-04-29T11:51:19.531Z,3.03
2018-04-29T11:53:52.021Z,2.70
2018-04-29T11:56:24.945Z,2.80
2018-04-29T11:58:58.150Z,2.70
2018-04-29T12:01:30.825Z,2.55
2018-04-29T12:04:03.492Z,2.70
2018-04-29T12:06:35.993Z,3.30
2018-04-29T12:09:08.936Z,2.85
2018-04-29T12:11:41.502Z,2.20
2018-04-29T12:14:14.260Z,2.67
2018-04-29T12:16:46.897Z,2.78
2018-04-29T12:19:20.334Z,2.30
2018-04-29T12:21:52.798Z,2.40
2018-04-29T12:24:26.298Z,2.92
2018-04-29T12:26:58.790Z,2.67
2018-04-29T12:29:31.500Z,2.53
2018-04-29T12:32:04.117Z,2.70
2018-04-29T12:34:37.402Z,2.40
2018-04-29T12:37:10.092Z,2.30
2018-04-29T12:39:42.673Z,2.90
2018-04-29T12:42:15.416Z,3.17
2018-04-29T12:44:48.107Z,3.03
2018-04-29T12:47:21.014Z,2.72
2018-04-29T12:49:53.609Z,2.80
2018-04-29T12:52:26.203Z,2.60
2018-04-29T12:54:58.919Z,2.55
2018-04-29T12:57:32.296Z,2.62
2018-04-29T13:00:05.236Z,2.97
2018-04-29T13:02:37.899Z,2.80
2018-04-29T13:05:11.242Z,2.58
2018-04-29T13:07:43.919Z,2.70
2018-04-29T13:10:16.579Z,2.40
2018-04-29T13:12:49.412Z,2.55
2018-04-29T13:15:22.137Z,2.55
2018-04-29T13:17:54.685Z,2.53
2018-04-29T13:20:27.289Z,2.47
2018-04-29T13:22:59.962Z,2.30
2018-04-29T13:25:32.820Z,2.53
2018-04-29T13:28:05.463Z,2.12
2018-04-29T13:30:38.032Z,1.98
2018-04-29T13:33:10.883Z,2.15
2018-04-29T13:35:43.640Z,2.40
2018-04-29T13:38:16.254Z,2.08
2018-04-29T13:40:48.721Z,2.28
2018-04-29T13:43:21.687Z,2.20
2018-04-29T13:45:55.840Z,2.50
2018-04-29T13:48:28.563Z,2.20
2018-04-29T13:51:01.138Z,3.10
2018-04-29T13:53:34.866Z,2.47
2018-04-29T13:56:07.622Z,2.45
2018-04-29T13:58:41.081Z,3.75
2018-04-29T14:01:13.701Z,4.40
2018-04-29T14:03:46.220Z,3.60
2018-04-29T14:06:20.300Z,4.10
2018-04-29T14:08:54.511Z,4.20
2018-04-29T14:11:27.333Z,4.53
2018-04-29T14:14:00.476Z,4.47
2018-04-29T14:16:33.025Z,4.40
2018-04-29T14:19:05.531Z,4.63
2018-04-29T14:21:38.422Z,4.43
2018-04-29T14:24:11.097Z,4.53
2018-04-29T14:26:43.875Z,4.30
2018-04-29T14:29:16.570Z,3.70
2018-04-29T14:31:49.157Z,3.77
2018-04-29T14:34:21.749Z,3.75
2018-04-29T14:36:55.049Z,3.93
2018-04-29T14:39:27.928Z,3.73
2018-04-29T14:42:01.223Z,4.07
2018-04-29T14:44:33.754Z,3.93
2018-04-29T14:47:06.468Z,4.00
2018-04-29T14:49:39.280Z,4.00
2018-04-29T14:52:11.791Z,4.47
2018-04-29T14:54:44.301Z,3.97
2018-04-29T14:57:16.922Z,4.60
2018-04-29T14:59:49.577Z,5.10
2018-04-29T15:02:22.271Z,4.30
2018-04-29T15:04:55.213Z,4.03
2018-04-29T15:07:28.777Z,4.07
2018-04-29T15:10:01.436Z,3.60
2018-04-29T15:12:34.015Z,3.65
2018-04-29T15:15:06.680Z,3.70
2018-04-29T15:17:39.471Z,3.60
2018-04-29T15:20:12.954Z,3.53
2018-04-29T15:22:45.375Z,4.50
2018-04-29T15:25:18.340Z,4.10
2018-04-29T15:27:51.286Z,3.60
2018-04-29T15:30:23.787Z,3.75
2018-04-29T15:32:57.256Z,4.10
2018-04-29T15:35:30.027Z,4.25
2018-04-29T15:38:02.587Z,4.00
2018-04-29T15:40:35.656Z,3.90
2018-04-29T15:43:08.849Z,4.20
2018-04-29T15:45:41.316Z,4.45
2018-04-29T15:48:14.689Z,4.05
2018-04-29T15:50:47.132Z,3.95
2018-04-29T15:53:20.497Z,3.72
2018-04-29T15:55:53.117Z,3.35
2018-04-29T15:58:25.836Z,3.60
2018-04-29T16:00:58.535Z,3.28
2018-04-29T16:03:31.617Z,3.62
2018-04-29T16:06:04.357Z,4.07
2018-04-29T16:08:36.861Z,3.83
2018-04-29T16:11:09.548Z,3.90
2018-04-29T16:13:42.057Z,3.55
2018-04-29T16:16:16.399Z,3.30
2018-04-29T16:18:48.822Z,3.50
2018-04-29T16:31:06.595Z,3.10
2018-04-29T16:33:39.237Z,3.17
2018-04-29T16:36:12.636Z,3.00
2018-04-29T16:38:45.560Z,3.00
2018-04-29T16:41:18.826Z,3.03
2018-04-29T16:43:51.397Z,3.12
2018-04-29T16:46:23.885Z,2.83
2018-04-29T16:48:57.393Z,3.40
2018-04-29T16:51:30.693Z,3.10
2018-04-29T16:54:03.440Z,3.03
2018-04-29T16:56:36.147Z,3.33
2018-04-29T16:59:08.840Z,3.22
2018-04-29T17:01:41.498Z,3.00
2018-04-29T17:04:15.071Z,3.30
2018-04-29T17:06:48.406Z,2.90
2018-04-29T17:09:21.274Z,3.95
2018-04-29T17:11:54.717Z,3.45
2018-04-29T17:14:27.659Z,3.25
2018-04-29T17:17:01.922Z,3.22
2018-04-29T17:19:34.631Z,3.40
2018-04-29T17:22:07.240Z,3.30
2018-04-29T17:24:39.943Z,3.30
2018-04-29T17:27:12.625Z,3.22
2018-04-29T17:29:45.257Z,2.90
2018-04-29T17:32:17.918Z,3.42
2018-04-29T17:34:50.408Z,3.85
2018-04-29T17:37:23.295Z,3.55
2018-04-29T17:39:56.744Z,5.30
2018-04-29T17:42:29.557Z,5.15
2018-04-29T17:45:02.355Z,4.03
2018-04-29T17:47:34.954Z,4.10
2018-04-29T17:50:08.030Z,3.33
2018-04-29T17:52:41.316Z,3.75
2018-04-29T17:55:13.971Z,3.80
2018-04-29T17:57:46.863Z,3.47
2018-04-29T18:00:19.572Z,3.70
2018-04-29T18:02:52.085Z,3.90
2018-04-29T18:05:24.789Z,3.45
2018-04-29T18:07:57.415Z,3.35
2018-04-29T18:10:30.472Z,3.53
2018-04-29T18:13:02.960Z,3.93
2018-04-29T18:15:37.240Z,4.10
2018-04-29T18:18:09.767Z,4.45
2018-04-29T18:20:43.238Z,4.12
2018-04-29T18:23:20.190Z,4.45
2018-04-29T18:25:52.797Z,4.57
2018-04-29T18:28:25.742Z,4.37
2018-04-29T18:30:58.468Z,4.43
2018-04-29T18:33:31.513Z,4.20
2018-04-29T18:36:05.224Z,4.00
2018-04-29T18:38:39.177Z,4.43
2018-04-29T18:41:12.726Z,4.73
2018-04-29T18:43:46.057Z,4.63
2018-04-29T18:46:18.893Z,4.13
2018-04-29T18:48:52.155Z,4.07
2018-04-29T18:51:26.039Z,4.23
2018-04-29T18:53:59.086Z,4.20
2018-04-29T18:56:33.013Z,4.03
2018-04-29T18:59:07.347Z,4.10
2018-04-29T19:01:41.980Z,4.50
2018-04-29T19:04:15.259Z,4.50
2018-04-29T19:06:48.758Z,4.13
2018-04-29T19:09:22.171Z,4.70
2018-04-29T19:11:55.483Z,4.43
2018-04-29T19:14:29.969Z,4.50
2018-04-29T19:17:03.833Z,4.60
2018-04-29T19:19:37.065Z,4.23
2018-04-29T19:22:10.567Z,4.30
2018-04-29T19:24:43.718Z,4.27
2018-04-29T19:27:16.428Z,4.47
2018-04-29T19:29:49.823Z,5.10
2018-04-29T19:32:23.099Z,4.57
2018-04-29T19:34:56.338Z,4.73
2018-04-29T19:37:30.663Z,4.60
2018-04-29T19:40:03.941Z,4.63
2018-04-29T19:42:36.886Z,4.60
2018-04-29T19:45:09.997Z,5.40
2018-04-29T19:47:43.005Z,5.10
2018-04-29T19:50:16.664Z,5.13
2018-04-29T19:52:50.069Z,4.57
2018-04-29T19:55:24.137Z,4.37
2018-04-29T19:57:56.931Z,4.83
2018-04-29T20:00:35.985Z,4.37
2018-04-29T20:03:08.679Z,5.10
2018-04-29T20:05:41.958Z,4.87
2018-04-29T20:08:14.802Z,4.50
2018-04-29T20:10:47.639Z,4.80
2018-04-29T20:13:20.460Z,5.87
2018-04-29T20:15:53.841Z,5.47
2018-04-29T20:18:27.541Z,5.63
2018-04-29T20:21:00.429Z,6.07
2018-04-29T20:23:33.375Z,6.80
2018-04-29T20:26:07.122Z,6.60
2018-04-29T20:28:41.320Z,6.70
2018-04-29T20:31:15.282Z,5.83
2018-04-29T20:33:48.185Z,5.80
2018-04-29T20:36:21.260Z,5.30
2018-04-29T20:38:55.142Z,5.97
2018-04-29T20:41:28.923Z,5.13
2018-04-29T20:44:01.903Z,5.70
2018-04-29T20:46:34.602Z,5.10
2018-04-29T20:49:07.353Z,5.57
2018-04-29T20:51:41.195Z,5.53
2018-04-29T20:54:14.051Z,6.43
2018-04-29T20:56:46.994Z,5.67
2018-04-29T20:59:20.831Z,5.70
2018-04-29T21:01:53.566Z,5.80
2018-04-29T21:04:27.954Z,5.70
2018-04-29T21:07:01.785Z,5.90
2018-04-29T21:09:34.708Z,6.47
2018-04-29T21:12:07.822Z,5.53
2018-04-29T21:14:41.212Z,6.00
2018-04-29T21:17:14.149Z,5.77
2018-04-29T21:19:46.747Z,5.70
2018-04-29T21:22:19.747Z,5.33
2018-04-29T21:24:53.327Z,5.67
2018-04-29T21:27:25.975Z,5.10
2018-04-29T21:29:58.775Z,6.30
2018-04-29T21:32:31.572Z,5.40
2018-04-29T21:35:05.674Z,4.50
2018-04-29T21:37:38.920Z,4.30
2018-04-29T21:40:12.586Z,4.57
2018-04-29T21:42:45.561Z,4.77
2018-04-29T21:45:18.668Z,4.73
2018-04-29T21:47:51.530Z,4.57
2018-04-29T21:50:24.355Z,4.30
2018-04-29T21:52:57.299Z,4.40
2018-04-29T21:55:30.020Z,3.93
2018-04-29T21:58:03.845Z,4.67
2018-04-29T22:00:36.862Z,4.33
2018-04-29T22:03:10.234Z,4.50
2018-04-29T22:05:44.237Z,4.10
2018-04-29T22:08:17.502Z,4.47
2018-04-29T22:10:50.176Z,4.63
2018-04-29T22:13:23.097Z,4.97
2018-04-29T22:15:56.602Z,4.33
2018-04-29T22:18:30.615Z,4.17
2018-04-29T22:21:03.103Z,4.50
2018-04-29T22:23:36.358Z,4.00
2018-04-29T22:26:09.122Z,4.67
2018-04-29T22:28:43.064Z,4.70
2018-04-29T22:31:15.760Z,4.77
2018-04-29T22:33:49.093Z,4.70
2018-04-29T22:36:22.211Z,5.03
2018-04-29T22:38:55.047Z,5.20
2018-04-29T22:41:28.016Z,4.60
2018-04-29T22:44:00.994Z,4.70
2018-04-29T22:46:33.782Z,4.43
2018-04-29T22:49:06.384Z,5.07
2018-04-29T22:51:39.104Z,5.30
2018-04-29T22:54:12.108Z,5.90
2018-04-29T22:56:44.950Z,4.70
2018-04-29T22:59:18.542Z,5.60
2018-04-29T23:01:51.384Z,5.17
2018-04-29T23:04:24.973Z,5.50
2018-04-29T23:06:57.989Z,5.57
2018-04-29T23:09:30.744Z,5.13
2018-04-29T23:12:03.609Z,5.40
2018-04-29T23:14:37.153Z,5.80
2018-04-29T23:17:10.676Z,5.40
2018-04-29T23:19:43.713Z,5.77
2018-04-29T23:22:16.820Z,5.07
2018-04-29T23:24:50.010Z,5.37
2018-04-29T23:27:23.393Z,5.37
2018-04-29T23:29:56.494Z,5.83
2018-04-29T23:32:29.007Z,5.20
2018-04-29T23:35:02.414Z,5.50
2018-04-29T23:37:35.058Z,5.47
2018-04-29T23:40:08.428Z,5.53
2018-04-29T23:42:41.010Z,6.40
2018-04-29T23:45:13.752Z,6.20
2018-04-29T23:47:46.772Z,6.30
2018-04-29T23:50:19.648Z,6.13
2018-04-29T23:52:52.747Z,5.77
2018-04-29T23:55:26.130Z,6.30
2018-04-29T23:57:59.558Z,6.50
